Time;durP1;ratioP1;P1;durP2;ratioP2;P2;SDS_P1;SDS_P2;PMS_P1;PMS_P2;Temp;Humidity;BMP_temperature;BMP_pressure;BME280_temperature;BME280_humidity;BME280_pressure;Samples;Min_cycle;Max_cycle;Signal;HPM_P1;HPM_P2
2023/04/27 00:00:29;;;;;;;3.10;1.00;;;;;;;7.01;60.13;100033.41;6296752;28;20056;-72
2023/04/27 00:03:30;;;;;;;2.25;1.13;;;;;;;7.02;60.46;100028.16;6281804;28;20132;-72
2023/04/27 00:06:33;;;;;;;1.88;1.17;;;;;;;7.04;58.90;100028.94;6293562;28;20045;-72
2023/04/27 00:09:34;;;;;;;;;;;;;;;6.88;58.74;100027.09;6287501;28;20057;-71
2023/04/27 00:12:34;;;;;;;1.05;0.82;;;;;;;6.95;59.53;100024.16;6281592;28;19920;-71
2023/04/27 00:15:38;;;;;;;1.10;1.00;;;;;;;6.90;59.69;100028.72;6269965;28;20052;-71
2023/04/27 00:18:41;;;;;;;1.73;1.08;;;;;;;6.92;60.05;100018.25;6277174;28;20126;-71
2023/04/27 00:21:44;;;;;;;2.22;1.10;;;;;;;6.89;60.56;100024.44;6315600;28;20532;-71
2023/04/27 00:24:47;;;;;;;2.05;1.25;;;;;;;6.81;61.60;100019.59;6304956;28;20076;-71
2023/04/27 00:27:47;;;;;;;2.35;1.20;;;;;;;6.83;60.81;100019.53;6300062;28;20052;-71
2023/04/27 00:30:48;;;;;;;1.38;0.90;;;;;;;6.73;59.91;100019.09;6294795;28;20544;-71
2023/04/27 00:33:49;;;;;;;1.08;0.60;;;;;;;6.77;59.91;100025.00;6291384;28;20135;-71
2023/04/27 00:36:50;;;;;;;0.77;0.77;;;;;;;6.72;60.05;100027.81;6296740;28;20535;-71
2023/04/27 00:39:51;;;;;;;2.28;1.27;;;;;;;6.65;60.19;100013.44;6296536;28;20048;-71
2023/04/27 00:42:52;;;;;;;2.08;0.65;;;;;;;6.63;60.23;100020.44;6292588;28;20160;-71
2023/04/27 00:45:53;;;;;;;1.58;1.00;;;;;;;6.56;58.53;100021.63;6276280;28;20044;-71
2023/04/27 00:48:55;;;;;;;1.83;1.10;;;;;;;6.63;60.30;100023.91;6289333;28;20416;-71
2023/04/27 00:51:55;;;;;;;1.17;0.77;;;;;;;6.60;59.99;100023.19;6281902;28;20045;-71
2023/04/27 00:54:56;;;;;;;1.58;0.82;;;;;;;6.52;59.68;100023.53;6277916;28;20083;-72
2023/04/27 00:57:59;;;;;;;2.20;0.98;;;;;;;6.49;59.42;100023.66;6297096;28;20083;-72
2023/04/27 01:01:00;;;;;;;1.48;0.82;;;;;;;6.33;59.85;100028.69;6296107;28;20052;-72
2023/04/27 01:04:01;;;;;;;2.22;1.13;;;;;;;6.42;60.85;100030.03;6296567;28;20079;-72
2023/04/27 01:07:02;;;;;;;2.05;0.93;;;;;;;6.39;60.88;100031.00;6278573;28;20563;-72
2023/04/27 01:10:05;;;;;;;1.08;0.80;;;;;;;6.26;60.81;100029.88;6297056;28;20059;-71
2023/04/27 01:13:06;;;;;;;0.82;0.70;;;;;;;6.41;61.81;100029.19;6278123;28;20378;-72
2023/04/27 01:16:06;;;;;;;1.35;1.05;;;;;;;6.21;60.71;100027.47;6289518;28;20059;-72
2023/04/27 01:19:10;;;;;;;0.60;0.60;;;;;;;6.29;62.69;100037.50;6273862;28;20414;-72
2023/04/27 01:22:10;;;;;;;0.90;0.73;;;;;;;6.20;60.80;100032.72;6278663;28;20060;-71
2023/04/27 01:25:11;;;;;;;3.58;0.90;;;;;;;6.05;62.49;100036.78;6276172;28;20053;-71
2023/04/27 01:28:12;;;;;;;1.15;0.80;;;;;;;6.07;62.65;100037.56;6288433;28;20131;-71
2023/04/27 01:31:14;;;;;;;1.60;0.98;;;;;;;6.03;64.14;100046.38;6295751;28;20049;-71
2023/04/27 01:34:14;;;;;;;1.63;1.10;;;;;;;5.92;62.83;100040.78;6295297;28;20053;-71
2023/04/27 01:37:15;;;;;;;1.35;0.93;;;;;;;5.94;62.95;100050.16;6296748;28;20055;-71
2023/04/27 01:40:16;;;;;;;3.20;1.45;;;;;;;5.88;62.78;100044.41;6295268;28;20109;-72
2023/04/27 01:43:17;;;;;;;1.95;1.17;;;;;;;5.98;65.19;100051.75;6294965;28;20113;-71
2023/04/27 01:46:18;;;;;;;1.10;0.73;;;;;;;5.99;65.87;100055.19;6295561;28;20489;-71
2023/04/27 01:49:19;;;;;;;2.28;1.35;;;;;;;5.87;64.48;100051.34;6295148;28;20063;-71
2023/04/27 01:52:19;;;;;;;8.35;1.13;;;;;;;5.79;66.26;100045.66;6294468;28;20048;-71
2023/04/27 01:55:20;;;;;;;8.07;0.90;;;;;;;5.70;65.13;100049.44;6267888;28;20549;-71
2023/04/27 01:58:23;;;;;;;2.63;1.08;;;;;;;5.74;64.31;100055.34;6279652;28;20182;-71
2023/04/27 02:01:27;;;;;;;14.45;1.88;;;;;;;5.72;66.17;100052.81;6253974;28;20049;-72
2023/04/27 02:04:27;;;;;;;3.13;1.42;;;;;;;5.72;68.40;100049.38;6287018;28;20052;-72
2023/04/27 02:07:28;;;;;;;4.95;1.65;;;;;;;5.68;67.91;100047.81;6271203;28;20056;-72
2023/04/27 02:10:29;;;;;;;3.72;2.38;;;;;;;5.65;68.28;100047.03;6271035;28;20151;-72
2023/04/27 02:13:29;;;;;;;3.35;1.50;;;;;;;5.63;69.54;100059.19;6289318;28;20045;-71
2023/04/27 02:16:32;;;;;;;1.10;0.95;;;;;;;5.51;67.85;100053.69;6307449;28;20056;-75
2023/04/27 02:19:33;;;;;;;2.47;1.80;;;;;;;5.49;68.96;100058.06;6302211;28;20091;-75
2023/04/27 02:22:34;;;;;;;1.60;1.08;;;;;;;5.43;69.65;100057.41;6283741;28;20048;-75
2023/04/27 02:25:36;;;;;;;7.43;1.15;;;;;;;5.49;72.05;100060.66;6283878;28;20583;-75
2023/04/27 02:28:37;;;;;;;2.22;1.13;;;;;;;5.29;71.43;100069.22;6301762;28;20048;-75
2023/04/27 02:31:38;;;;;;;4.25;1.52;;;;;;;5.31;70.62;100062.22;6283807;28;20191;-75
2023/04/27 02:34:41;;;;;;;2.63;1.05;;;;;;;5.27;74.55;100066.66;6283788;28;20056;-75
2023/04/27 02:37:44;;;;;;;1.67;0.93;;;;;;;5.21;76.60;100057.44;6301271;28;20060;-75
2023/04/27 02:40:45;;;;;;;1.13;0.80;;;;;;;5.17;76.73;100067.97;6283234;28;20049;-75
2023/04/27 02:43:46;;;;;;;1.92;1.15;;;;;;;5.09;77.23;100059.66;6277931;28;20052;-75
2023/04/27 02:46:47;;;;;;;1.60;0.98;;;;;;;4.98;78.52;100067.78;6301300;28;20389;-75
2023/04/27 02:49:47;;;;;;;4.35;1.40;;;;;;;4.99;77.21;100075.50;6283255;28;20097;-75
2023/04/27 02:52:50;;;;;;;1.35;0.90;;;;;;;4.95;80.10;100079.09;6301199;28;20393;-75
2023/04/27 02:55:51;;;;;;;1.05;0.95;;;;;;;4.84;80.13;100076.09;6300555;28;20139;-75
2023/04/27 02:58:52;;;;;;;3.97;1.27;;;;;;;4.80;78.33;100079.69;6299902;28;20476;-75
2023/04/27 03:01:53;;;;;;;2.28;1.30;;;;;;;4.75;80.13;100086.75;6300339;28;20063;-75
2023/04/27 03:04:54;;;;;;;1.63;0.82;;;;;;;4.74;79.28;100092.81;6300765;28;20044;-75
2023/04/27 03:07:55;;;;;;;0.60;0.60;;;;;;;4.71;78.71;100088.59;6300249;28;20055;-75
2023/04/27 03:10:58;;;;;;;2.35;0.85;;;;;;;4.69;81.19;100090.38;6282195;28;20056;-75
2023/04/27 03:14:02;;;;;;;1.70;1.00;;;;;;;4.71;81.68;100093.75;6297644;28;20685;-75
2023/04/27 03:17:05;;;;;;;2.20;1.20;;;;;;;4.69;81.30;100092.97;6299160;28;20053;-75
2023/04/27 03:20:09;;;;;;;2.30;1.00;;;;;;;4.66;83.75;100097.44;6296115;28;20075;-75
2023/04/27 03:23:10;;;;;;;4.50;1.10;;;;;;;4.59;81.75;100096.78;6299527;28;20056;-75
2023/04/27 03:26:13;;;;;;;4.53;2.08;;;;;;;4.52;82.64;100095.31;6293530;28;20048;-75
2023/04/27 03:29:14;;;;;;;;;;;;;;;4.60;83.30;100104.50;6280565;28;20048;-75
2023/04/27 03:32:17;;;;;;;1.85;0.90;;;;;;;4.65;84.46;100106.91;6299011;28;19943;-75
2023/04/27 03:35:18;;;;;;;5.22;1.20;;;;;;;4.73;82.01;100109.22;6300063;28;20400;-75
2023/04/27 03:38:21;;;;;;;1.48;1.00;;;;;;;4.77;82.47;100115.97;6299984;28;20084;-75
2023/04/27 03:41:22;;;;;;;5.82;1.67;;;;;;;4.71;79.19;100109.28;6281555;28;20079;-75
2023/04/27 03:44:22;;;;;;;1.33;1.05;;;;;;;4.75;79.43;100126.34;6281642;28;20049;-75
2023/04/27 03:47:23;;;;;;;1.13;1.02;;;;;;;4.77;80.65;100115.97;6299141;28;20539;-75
2023/04/27 03:50:24;;;;;;;4.22;1.17;;;;;;;4.88;83.42;100124.19;6281609;28;20055;-75
2023/04/27 03:53:25;;;;;;;1.60;1.08;;;;;;;4.94;83.35;100121.38;6299447;28;20040;-75
2023/04/27 03:56:25;;;;;;;1.52;1.13;;;;;;;4.94;80.43;100129.16;6281557;28;20053;-75
2023/04/27 03:59:32;;;;;;;1.05;0.80;;;;;;;4.95;80.37;100136.00;6281495;28;20052;-75
2023/04/27 04:02:33;;;;;;;3.83;1.75;;;;;;;4.93;81.05;100147.28;6281592;28;20186;-75
2023/04/27 04:05:34;;;;;;;2.55;1.35;;;;;;;5.01;82.71;100146.09;6281256;28;20397;-75
2023/04/27 04:08:35;;;;;;;3.25;1.33;;;;;;;5.11;80.82;100145.78;6298924;28;20053;-75
2023/04/27 04:11:35;;;;;;;1.45;1.10;;;;;;;5.16;80.48;100149.03;6280907;28;20084;-75
2023/04/27 04:14:36;;;;;;;1.90;1.70;;;;;;;5.12;79.72;100155.22;6280846;28;20044;-75
2023/04/27 04:17:37;;;;;;;3.03;1.98;;;;;;;5.20;79.81;100155.78;6299099;28;20102;-75
2023/04/27 04:20:37;;;;;;;3.38;1.92;;;;;;;5.26;80.88;100163.31;6280824;28;20135;-75
2023/04/27 04:23:39;;;;;;;2.35;1.40;;;;;;;5.25;80.04;100159.06;6298543;28;20127;-75
2023/04/27 04:26:40;;;;;;;1.92;1.23;;;;;;;5.29;79.27;100164.94;6281061;28;20049;-75
2023/04/27 04:29:41;;;;;;;4.22;1.63;;;;;;;5.36;78.95;100162.06;6298275;28;20048;-75
2023/04/27 04:32:43;;;;;;;3.08;1.80;;;;;;;5.45;80.32;100164.28;6280842;28;20064;-75
2023/04/27 04:35:45;;;;;;;2.08;1.52;;;;;;;5.55;78.33;100162.19;6280213;28;20052;-75
2023/04/27 04:38:46;;;;;;;2.50;1.30;;;;;;;5.69;79.28;100161.69;6298225;28;20056;-76
2023/04/27 04:41:49;;;;;;;2.08;1.15;;;;;;;5.72;79.52;100177.06;6280633;28;20055;-76
2023/04/27 04:44:50;;;;;;;1.40;1.30;;;;;;;5.93;79.51;100169.38;6298329;28;20059;-77
2023/04/27 04:47:55;;;;;;;2.22;1.73;;;;;;;6.05;77.33;100168.91;6298290;28;20053;-76
2023/04/27 04:50:56;;;;;;;3.72;1.90;;;;;;;6.12;78.62;100178.13;6280466;28;20085;-77
2023/04/27 04:53:56;;;;;;;3.85;1.75;;;;;;;6.12;77.10;100174.69;6297752;28;20056;-77
2023/04/27 04:56:58;;;;;;;3.55;1.38;;;;;;;6.09;74.54;100183.41;6298149;28;20052;-77
2023/04/27 04:59:58;;;;;;;2.80;1.90;;;;;;;6.14;75.47;100193.63;6297957;28;20053;-77
2023/04/27 05:03:00;;;;;;;2.10;1.67;;;;;;;6.33;74.79;100197.13;6279832;28;20082;-77
2023/04/27 05:06:00;;;;;;;1.80;1.10;;;;;;;6.37;74.10;100198.69;6279815;28;20052;-77
2023/04/27 05:09:03;;;;;;;2.38;1.45;;;;;;;6.50;73.49;100206.78;6279711;28;20390;-77
2023/04/27 05:12:04;;;;;;;2.22;1.80;;;;;;;6.53;73.53;100206.69;6279382;28;20147;-77
2023/04/27 05:15:06;;;;;;;2.30;1.80;;;;;;;6.67;73.26;100206.09;6280072;28;20087;-75
2023/04/27 05:18:08;;;;;;;3.38;1.90;;;;;;;6.77;71.40;100209.13;6297559;28;20126;-75
2023/04/27 05:21:19;;;;;;;5.15;2.15;;;;;;;6.84;71.63;100208.81;6313254;28;20469;-74
2023/04/27 05:24:20;;;;;;;2.80;1.38;;;;;;;6.98;70.31;100212.53;6297855;28;20050;-75
2023/04/27 05:27:20;;;;;;;2.97;1.48;;;;;;;7.17;70.12;100212.59;6280033;28;20052;-75
2023/04/27 05:30:21;;;;;;;2.97;1.40;;;;;;;7.19;68.31;100211.63;6297497;28;20135;-75
2023/04/27 05:33:22;;;;;;;1.33;0.80;;;;;;;7.19;64.04;100210.78;6297417;28;20485;-74
2023/04/27 05:36:23;;;;;;;1.15;1.05;;;;;;;7.38;63.41;100216.00;6279574;28;20182;-75
2023/04/27 05:39:24;;;;;;;1.92;1.40;;;;;;;7.57;64.24;100221.19;6297684;28;20056;-75
2023/04/27 05:42:27;;;;;;;1.85;1.35;;;;;;;7.70;62.20;100224.91;6279788;28;20098;-74
2023/04/27 05:45:33;;;;;;;1.35;1.23;;;;;;;7.84;60.90;100232.03;6279812;28;20044;-75
2023/04/27 05:48:33;;;;;;;1.92;1.40;;;;;;;7.95;61.53;100226.34;6282832;28;20503;-74
2023/04/27 05:51:37;;;;;;;1.77;1.05;;;;;;;8.05;59.65;100227.56;6302457;28;20049;-75
2023/04/27 05:54:38;;;;;;;1.55;0.95;;;;;;;8.20;59.22;100231.22;6302317;28;20044;-75
2023/04/27 05:57:40;;;;;;;1.25;0.95;;;;;;;8.35;58.51;100240.03;6302340;28;20091;-75
2023/04/27 06:00:41;;;;;;;2.13;1.30;;;;;;;8.41;58.14;100234.56;6302468;28;20055;-75
2023/04/27 06:03:41;;;;;;;3.08;1.30;;;;;;;8.55;57.92;100246.88;6302451;28;20048;-75
2023/04/27 06:06:43;;;;;;;1.92;1.00;;;;;;;8.43;59.08;100249.16;6302277;28;20049;-75
2023/04/27 06:09:44;;;;;;;2.10;0.70;;;;;;;8.53;57.24;100246.13;6283992;28;20048;-75
2023/04/27 06:12:45;;;;;;;1.98;1.23;;;;;;;9.00;57.50;100243.72;6283765;28;20296;-75
2023/04/27 06:15:46;;;;;;;1.23;0.68;;;;;;;9.15;56.00;100246.47;6283866;28;20049;-75
2023/04/27 06:18:49;;;;;;;1.85;1.00;;;;;;;8.90;56.12;100247.72;6284127;28;20056;-75
2023/04/27 06:21:50;;;;;;;5.78;1.15;;;;;;;8.86;55.63;100247.03;6301588;28;20423;-75
2023/04/27 06:24:51;;;;;;;2.83;1.20;;;;;;;9.03;56.02;100246.16;6284113;28;20044;-74
2023/04/27 06:27:55;;;;;;;2.65;1.48;;;;;;;9.23;56.88;100252.94;6301304;28;20451;-75
2023/04/27 06:30:55;;;;;;;1.17;0.90;;;;;;;9.20;53.04;100249.66;6283488;28;20055;-75
2023/04/27 06:33:59;;;;;;;1.48;0.85;;;;;;;9.35;52.74;100251.47;6283466;28;20041;-75
2023/04/27 06:37:00;;;;;;;2.65;1.13;;;;;;;9.51;51.88;100246.25;6301524;28;20080;-75
2023/04/27 06:40:01;;;;;;;3.63;1.30;;;;;;;9.46;50.52;100262.13;6283732;28;20048;-74
2023/04/27 06:43:02;;;;;;;2.40;0.98;;;;;;;9.62;50.88;100261.34;6301070;28;20044;-75
2023/04/27 06:46:03;;;;;;;6.40;1.10;;;;;;;9.76;51.71;100266.66;6283271;28;20390;-75
2023/04/27 06:49:04;;;;;;;2.42;1.00;;;;;;;9.66;50.54;100262.84;6283220;28;20464;-75
2023/04/27 06:52:06;;;;;;;3.90;0.98;;;;;;;9.54;49.49;100274.75;6300734;28;20588;-74
2023/04/27 06:55:07;;;;;;;1.00;0.73;;;;;;;9.76;50.35;100261.44;6283213;28;20040;-75
2023/04/27 06:58:08;;;;;;;3.17;1.17;;;;;;;10.04;49.89;100273.78;6300953;28;20049;-75
2023/04/27 07:01:08;;;;;;;2.28;1.33;;;;;;;9.82;49.23;100255.88;6282286;28;20071;-75
2023/04/27 07:04:09;;;;;;;1.23;0.63;;;;;;;9.50;50.43;100270.63;6300797;28;20049;-75
2023/04/27 07:07:10;;;;;;;2.38;0.88;;;;;;;9.96;48.82;100262.94;6301041;28;20055;-75
2023/04/27 07:10:11;;;;;;;2.97;1.45;;;;;;;10.46;49.61;100268.91;6283031;28;20051;-75
2023/04/27 07:13:12;;;;;;;2.00;0.90;;;;;;;10.41;48.87;100271.75;6300239;28;20057;-75
2023/04/27 07:16:14;;;;;;;5.03;1.10;;;;;;;10.03;48.22;100266.06;6282945;28;20065;-75
2023/04/27 07:19:17;;;;;;;;;;;;;;;10.51;48.71;100271.25;6283350;28;20064;-75
2023/04/27 07:22:18;;;;;;;;;;;;;;;10.62;47.93;100274.88;6283199;28;19928;-75
2023/04/27 07:25:19;;;;;;;1.17;0.73;;;;;;;10.55;46.59;100276.19;6300374;28;19927;-75
2023/04/27 07:28:20;;;;;;;1.40;1.05;;;;;;;10.94;44.68;100266.13;6300452;28;20057;-75
2023/04/27 07:31:21;;;;;;;5.25;1.55;;;;;;;11.24;45.96;100266.06;6300420;28;20048;-75
2023/04/27 07:34:22;;;;;;;1.17;0.82;;;;;;;11.44;44.90;100273.53;6282547;28;20400;-75
2023/04/27 07:37:23;;;;;;;1.77;1.03;;;;;;;11.55;45.19;100272.03;6282515;28;20110;-75
2023/04/27 07:40:24;;;;;;;1.60;1.10;;;;;;;11.23;45.53;100265.22;6300037;28;20281;-75
2023/04/27 07:43:25;;;;;;;2.28;1.25;;;;;;;11.63;44.15;100261.94;6282483;28;20553;-75
2023/04/27 07:46:32;;;;;;;2.97;1.15;;;;;;;11.56;44.67;100271.94;6299795;28;20435;-75
2023/04/27 07:49:34;;;;;;;2.10;0.90;;;;;;;10.83;44.04;100271.97;6300210;28;20094;-75
2023/04/27 07:52:36;;;;;;;1.77;0.93;;;;;;;10.79;44.19;100271.31;6282326;28;20048;-75
2023/04/27 07:55:42;;;;;;;7.05;2.45;;;;;;;11.09;43.15;100275.66;6282038;28;20048;-75
2023/04/27 07:58:43;;;;;;;1.50;0.70;;;;;;;10.60;42.88;100274.13;6281916;28;20048;-75
2023/04/27 08:01:44;;;;;;;3.53;1.25;;;;;;;10.58;42.84;100267.34;6299408;28;20044;-75
2023/04/27 08:04:45;;;;;;;2.40;1.00;;;;;;;11.27;43.73;100277.16;6281959;28;20485;-75
2023/04/27 08:07:48;;;;;;;2.03;1.15;;;;;;;11.10;42.37;100274.75;6281844;28;20048;-75
2023/04/27 08:10:49;;;;;;;6.22;1.48;;;;;;;11.32;42.11;100278.66;6299013;28;20140;-75
2023/04/27 08:13:50;;;;;;;3.72;0.95;;;;;;;11.02;39.83;100280.41;6281641;28;20052;-75
2023/04/27 08:16:53;;;;;;;2.75;1.52;;;;;;;11.84;38.70;100281.53;6299298;28;20052;-75
2023/04/27 08:19:54;;;;;;;1.67;1.13;;;;;;;12.23;37.94;100286.97;6299374;28;20049;-75
2023/04/27 08:22:55;;;;;;;1.10;0.93;;;;;;;12.59;37.86;100288.97;6281472;28;20202;-75
2023/04/27 08:25:58;;;;;;;5.53;1.20;;;;;;;12.85;37.54;100282.03;6281469;28;20090;-75
2023/04/27 08:29:00;;;;;;;4.57;1.42;;;;;;;12.83;37.39;100298.78;6281011;28;20393;-75
2023/04/27 08:32:02;;;;;;;2.08;1.08;;;;;;;12.93;38.07;100289.38;6299033;28;20135;-75
2023/04/27 08:35:03;;;;;;;1.67;0.90;;;;;;;12.03;41.18;100286.47;6280815;28;20070;-75
2023/04/27 08:38:04;;;;;;;0.80;0.80;;;;;;;11.79;41.19;100283.56;6298625;28;20097;-75
2023/04/27 08:41:06;;;;;;;4.70;1.15;;;;;;;12.27;40.57;100296.28;6281155;28;20481;-75
2023/04/27 08:44:07;;;;;;;1.25;0.90;;;;;;;12.08;38.26;100291.41;6280876;28;20079;-75
2023/04/27 08:47:09;;;;;;;1.20;1.10;;;;;;;12.06;37.76;100288.03;6280830;28;20051;-75
2023/04/27 08:50:11;;;;;;;1.45;0.95;;;;;;;12.28;38.23;100293.59;6280947;28;20049;-75
2023/04/27 08:53:17;;;;;;;1.90;0.90;;;;;;;12.01;38.17;100288.34;6280440;28;20497;-75
2023/04/27 08:56:22;;;;;;;1.00;0.80;;;;;;;12.00;37.67;100280.59;6298559;28;20504;-75
2023/04/27 08:59:22;;;;;;;1.33;0.90;;;;;;;12.44;39.18;100284.75;6280532;28;20052;-77
2023/04/27 09:02:25;;;;;;;1.08;0.80;;;;;;;13.10;38.06;100289.06;6298045;28;20048;-77
2023/04/27 09:05:26;;;;;;;3.58;1.05;;;;;;;12.61;40.09;100283.66;6298399;28;20048;-75
2023/04/27 09:08:27;;;;;;;4.10;1.23;;;;;;;11.74;37.70;100276.97;6280546;28;20059;-75
2023/04/27 09:11:30;;;;;;;1.45;0.73;;;;;;;12.54;36.18;100282.34;6298159;28;20068;-75
2023/04/27 09:14:34;;;;;;;6.60;1.17;;;;;;;13.04;34.30;100276.38;6280397;28;20072;-75
2023/04/27 09:17:37;;;;;;;3.55;1.08;;;;;;;13.69;36.15;100272.81;6280394;28;20143;-76
2023/04/27 09:20:46;;;;;;;1.35;0.82;;;;;;;14.51;36.24;100272.16;6280370;28;20052;-76
2023/04/27 09:23:46;;;;;;;2.22;0.98;;;;;;;12.48;36.45;100263.50;6279275;28;20439;-75
2023/04/27 09:26:49;;;;;;;3.15;0.80;;;;;;;11.86;36.16;100269.19;6298195;28;20060;-76
2023/04/27 09:29:50;;;;;;;2.28;0.77;;;;;;;12.21;38.67;100271.38;6298187;28;20045;-76
2023/04/27 09:32:59;;;;;;;1.23;0.80;;;;;;;11.60;37.08;100259.53;6297830;28;20512;-75
2023/04/27 09:36:05;;;;;;;2.38;0.95;;;;;;;12.05;38.92;100265.44;6280254;28;20054;-76
2023/04/27 09:39:06;;;;;;;2.70;0.80;;;;;;;11.90;38.53;100267.25;6279792;28;20507;-75
2023/04/27 09:42:10;;;;;;;3.55;0.98;;;;;;;11.88;37.58;100262.13;6280202;28;20056;-75
2023/04/27 09:45:11;;;;;;;1.30;0.82;;;;;;;12.08;39.14;100271.31;6297965;28;20181;-75
2023/04/27 09:48:12;;;;;;;0.70;0.70;;;;;;;13.14;37.57;100270.50;6280184;28;20052;-76
2023/04/27 09:51:13;;;;;;;3.47;1.30;;;;;;;14.46;35.81;100263.81;6280081;28;20048;-76
2023/04/27 09:54:15;;;;;;;7.43;1.57;;;;;;;14.19;35.01;100259.63;6279907;28;20101;-76
2023/04/27 09:57:25;;;;;;;2.13;0.95;;;;;;;13.91;32.97;100252.91;6297378;28;20133;-75
2023/04/27 10:00:53;;;;;;;1.67;1.00;;;;;;;14.55;34.42;100252.59;6279614;28;20450;-76
2023/04/27 10:04:21;;;;;;;0.93;0.70;;;;;;;13.73;34.59;100255.03;6297662;28;20055;-76
2023/04/27 10:07:22;;;;;;;1.35;0.93;;;;;;;13.74;34.09;100250.66;6297745;28;20086;-76
2023/04/27 10:10:22;;;;;;;3.65;1.13;;;;;;;13.47;35.87;100244.63;6297399;28;20397;-76
2023/04/27 10:13:25;;;;;;;1.63;1.15;;;;;;;12.69;34.42;100258.63;6279092;28;20078;-76
2023/04/27 10:16:25;;;;;;;;;;;;;;;12.77;38.45;100257.28;6279816;28;20489;-75
2023/04/27 10:19:26;;;;;;;3.05;1.05;;;;;;;12.74;35.63;100249.63;6297536;28;19920;-75
2023/04/27 10:22:44;;;;;;;3.78;1.60;;;;;;;12.94;35.48;100264.00;6313181;28;20057;-75
2023/04/27 10:25:46;;;;;;;5.15;1.10;;;;;;;13.15;36.26;100253.84;6297550;28;20131;-75
2023/04/27 10:29:15;;;;;;;2.53;1.23;;;;;;;12.86;35.81;100256.66;6297088;28;20412;-75
2023/04/27 10:32:28;;;;;;;6.78;1.42;;;;;;;12.88;36.34;100258.22;6297463;28;20048;-75
2023/04/27 10:35:40;;;;;;;1.23;0.95;;;;;;;13.26;37.55;100262.66;6300962;28;20446;-75
2023/04/27 10:38:40;;;;;;;1.45;0.70;;;;;;;13.79;36.58;100248.53;6301403;28;20248;-75
2023/04/27 10:41:55;;;;;;;3.20;0.95;;;;;;;14.71;33.08;100255.78;6301772;28;20472;-75
2023/04/27 10:44:57;;;;;;;1.40;0.80;;;;;;;15.20;33.70;100251.22;6301706;28;20094;-75
2023/04/27 10:47:59;;;;;;;1.00;0.88;;;;;;;14.48;36.61;100260.09;6283809;28;20095;-75
2023/04/27 10:51:01;;;;;;;3.72;1.08;;;;;;;14.13;33.97;100262.69;6283376;28;20056;-75
2023/04/27 10:54:05;;;;;;;1.05;0.80;;;;;;;14.84;34.74;100254.88;6283732;28;20059;-76
2023/04/27 10:57:08;;;;;;;1.63;1.02;;;;;;;14.46;34.83;100259.38;6301479;28;20058;-76
2023/04/27 11:00:13;;;;;;;1.55;0.80;;;;;;;14.10;34.26;100265.53;6301432;28;20044;-76
2023/04/27 11:03:17;;;;;;;4.82;1.13;;;;;;;14.08;34.98;100265.66;6301325;28;20048;-76
2023/04/27 11:06:17;;;;;;;1.50;0.77;;;;;;;13.90;33.08;100267.81;6283404;28;20045;-76
2023/04/27 11:09:26;;;;;;;1.48;0.98;;;;;;;14.03;33.13;100259.06;6300746;28;20051;-76
2023/04/27 11:12:30;;;;;;;1.02;0.70;;;;;;;13.72;33.42;100261.25;6300792;28;20059;-76
2023/04/27 11:15:53;;;;;;;1.85;1.05;;;;;;;13.13;34.79;100261.81;6300488;28;20556;-76
2023/04/27 11:18:54;;;;;;;2.80;1.10;;;;;;;13.42;33.30;100269.47;6282865;28;20385;-75
2023/04/27 11:22:02;;;;;;;1.20;0.70;;;;;;;12.99;34.77;100268.00;6283125;28;20049;-76
2023/04/27 11:25:04;;;;;;;1.52;0.73;;;;;;;13.08;33.82;100271.78;6300432;28;20511;-76
2023/04/27 11:28:16;;;;;;;1.48;0.80;;;;;;;14.00;34.86;100273.25;6282936;28;20102;-75
2023/04/27 11:31:17;;;;;;;2.00;1.00;;;;;;;14.44;32.83;100271.78;6282903;28;20048;-75
2023/04/27 11:34:25;;;;;;;1.17;0.82;;;;;;;14.59;31.89;100261.13;6300259;28;20504;-76
2023/04/27 11:37:26;;;;;;;3.60;1.20;;;;;;;14.20;32.96;100266.53;6300106;28;20052;-75
2023/04/27 11:40:28;;;;;;;2.22;1.20;;;;;;;13.33;33.81;100267.50;6282627;28;20495;-76
2023/04/27 11:43:29;;;;;;;4.00;1.13;;;;;;;13.11;35.55;100274.16;6300004;28;20390;-76
2023/04/27 11:46:35;;;;;;;2.47;0.82;;;;;;;13.09;35.99;100260.34;6299651;28;20049;-75
2023/04/27 11:49:37;;;;;;;1.60;0.77;;;;;;;12.81;35.72;100266.63;6282420;28;20048;-75
2023/04/27 11:52:41;;;;;;;1.07;0.90;;;;;;;13.09;37.05;100266.44;6300241;28;20094;-76
2023/04/27 11:55:42;;;;;;;2.55;0.90;;;;;;;13.16;36.85;100269.47;6281870;28;20297;-75
2023/04/27 11:58:43;;;;;;;0.63;0.63;;;;;;;13.25;36.07;100271.44;6282258;28;20500;-75
2023/04/27 12:01:44;;;;;;;1.27;0.80;;;;;;;13.77;34.82;100260.91;6299935;28;20044;-75
2023/04/27 12:04:46;;;;;;;4.05;1.75;;;;;;;13.67;35.23;100268.59;6282089;28;20136;-76
2023/04/27 12:07:49;;;;;;;6.97;2.78;;;;;;;13.14;35.88;100265.25;6299417;28;20799;-76
2023/04/27 12:10:50;;;;;;;10.70;4.93;;;;;;;13.40;36.47;100274.00;6299431;28;20491;-76
2023/04/27 12:14:01;;;;;;;2.58;1.50;;;;;;;13.23;37.49;100272.50;6299564;28;20048;-76
2023/04/27 12:17:02;;;;;;;6.25;3.35;;;;;;;12.95;35.65;100277.00;6281471;28;20079;-75
2023/04/27 12:20:04;;;;;;;6.22;3.40;;;;;;;13.01;37.28;100276.59;6299406;28;20088;-75
2023/04/27 12:23:05;;;;;;;12.93;5.07;;;;;;;12.96;35.59;100270.81;6299032;28;20492;-75
2023/04/27 12:26:06;;;;;;;3.00;0.98;;;;;;;12.86;36.02;100275.00;6281122;28;20048;-75
2023/04/27 12:29:07;;;;;;;2.72;1.23;;;;;;;14.00;35.97;100277.63;6298872;28;20500;-75
2023/04/27 12:32:10;;;;;;;19.05;9.18;;;;;;;13.89;34.36;100268.75;6299186;28;20499;-75
2023/04/27 12:35:11;;;;;;;6.28;3.33;;;;;;;14.52;33.44;100274.69;6298747;28;20107;-75
2023/04/27 12:38:12;;;;;;;5.07;1.63;;;;;;;14.03;34.37;100270.38;6281345;28;20055;-75
2023/04/27 12:41:13;;;;;;;1.65;1.35;;;;;;;14.14;35.96;100269.59;6299065;28;20269;-75
2023/04/27 12:44:15;;;;;;;2.10;0.85;;;;;;;13.35;35.76;100263.81;6281217;28;20101;-75
2023/04/27 12:47:17;;;;;;;2.80;1.10;;;;;;;13.72;34.19;100261.25;6298888;28;20053;-75
2023/04/27 12:50:18;;;;;;;2.95;1.25;;;;;;;13.38;35.61;100263.59;6298759;28;20048;-75
2023/04/27 12:53:20;;;;;;;4.05;0.98;;;;;;;13.31;35.99;100259.75;6280518;28;20070;-75
2023/04/27 12:56:21;;;;;;;;;;;;;;;12.95;37.60;100274.41;6280933;28;20129;-75
2023/04/27 12:59:26;;;;;;;1.98;1.20;;;;;;;13.48;35.49;100269.88;6297924;28;19985;-75
2023/04/27 13:02:27;;;;;;;2.00;0.95;;;;;;;14.50;35.22;100271.34;6280757;28;20473;-75
2023/04/27 13:05:28;;;;;;;3.13;0.95;;;;;;;14.78;34.57;100269.28;6314119;28;20044;-76
2023/04/27 13:08:28;;;;;;;1.38;0.75;;;;;;;15.39;32.14;100266.41;6280336;28;20102;-76
2023/04/27 13:11:29;;;;;;;9.82;1.42;;;;;;;14.37;31.65;100259.22;6280413;28;20511;-76
2023/04/27 13:14:32;;;;;;;1.90;1.13;;;;;;;14.76;34.31;100262.50;6298103;28;20067;-76
2023/04/27 13:17:32;;;;;;;2.00;1.15;;;;;;;14.31;33.15;100255.28;6298313;28;20059;-76
2023/04/27 13:20:33;;;;;;;1.48;1.10;;;;;;;13.24;33.79;100254.06;6280174;28;20048;-75
2023/04/27 13:23:34;;;;;;;3.95;1.45;;;;;;;12.92;34.01;100261.50;6298259;28;20511;-75
2023/04/27 13:26:35;;;;;;;3.50;1.05;;;;;;;12.95;36.48;100258.69;6279175;28;20060;-71
2023/04/27 13:29:37;;;;;;;1.70;1.08;;;;;;;13.45;35.96;100261.41;6295708;28;20055;-71
2023/04/27 13:32:37;;;;;;;3.77;1.23;;;;;;;13.61;35.04;100248.03;6297914;28;20484;-76
2023/04/27 13:35:39;;;;;;;3.80;1.25;;;;;;;14.01;34.54;100250.47;6279930;28;20051;-71
2023/04/27 13:38:40;;;;;;;1.92;1.20;;;;;;;14.01;34.13;100264.41;6278514;28;20084;-75
2023/04/27 13:41:40;;;;;;;3.55;1.40;;;;;;;14.20;35.97;100263.91;6278631;28;20075;-71
2023/04/27 13:44:41;;;;;;;3.08;1.67;;;;;;;14.85;35.72;100262.66;6297282;28;20477;-75
2023/04/27 13:47:42;;;;;;;3.35;1.40;;;;;;;14.30;33.58;100253.59;6279818;28;20139;-75
2023/04/27 13:50:46;;;;;;;5.60;1.35;;;;;;;14.12;34.58;100261.00;6297800;28;20102;-75
2023/04/27 13:53:46;;;;;;;1.40;1.10;;;;;;;14.61;35.68;100261.84;6297345;28;20044;-71
2023/04/27 13:56:47;;;;;;;2.13;1.27;;;;;;;14.52;37.34;100263.34;6295491;28;20059;-70
2023/04/27 13:59:48;;;;;;;2.40;1.50;;;;;;;13.98;35.70;100262.03;6296421;28;20048;-75
2023/04/27 14:02:51;;;;;;;2.58;1.23;;;;;;;14.04;36.24;100271.22;6278173;28;20416;-71
2023/04/27 14:05:54;;;;;;;3.30;1.23;;;;;;;13.78;34.60;100260.81;6295057;28;20456;-71
2023/04/27 14:08:56;;;;;;;2.38;1.23;;;;;;;13.65;35.97;100262.63;6299200;28;20052;-71
2023/04/27 14:11:56;;;;;;;2.00;0.95;;;;;;;13.49;35.91;100270.75;6282631;28;20052;-75
2023/04/27 14:14:58;;;;;;;1.48;0.90;;;;;;;13.56;36.54;100271.16;6302527;28;20076;-75